Аэропорт: Кривой Рог. Кривой Рог

ICAO: UKDR

METAR:
2021-01-27 02:00:00
UKDR 270200Z 01005MPS 6000 -SHRA BKN025CB 00/M01 Q1005 R36/290155 TEMPO 0500 FZRA FZFG VV002
METAR:
2021-01-26 23:04:00
TAF UKDR 262304Z 2700/2724 36006MPS 2100 -SHSN BKN005 BKN015CB TX05/2715Z TNM01/2703Z TEMPO 2700/2712 02007G12MPS 0500 FZRA FZFG VV002 FM271200 110006MPS 2100 -RA BR OVC005 TEMPO 2712/2724 1000 SHRA BR BKN003 BKN015CB